createdAt,value
2022-08-14T00:05:37.181Z,100973.38
2022-08-14T00:12:41.995Z,100981.31
2022-08-14T00:19:43.627Z,100977.69
2022-08-14T00:26:47.862Z,100970.94
2022-08-14T00:33:54.444Z,100976.31
2022-08-14T00:41:00.661Z,100966.34
2022-08-14T00:48:02.304Z,100968.56
2022-08-14T00:55:05.832Z,100964.81
2022-08-14T01:02:09.887Z,100952.56
2022-08-14T01:09:12.871Z,100952.22
2022-08-14T01:16:17.042Z,100944.78
2022-08-14T01:23:24.065Z,100946.50
2022-08-14T01:30:43.509Z,100945.47
2022-08-14T01:37:54.690Z,100943.03
2022-08-14T01:44:58.482Z,100953.72
2022-08-14T01:52:00.117Z,100952.34
2022-08-14T01:59:01.816Z,100949.06
2022-08-14T02:06:32.261Z,100949.06
2022-08-14T02:13:25.118Z,100944.78
2022-08-14T02:20:29.341Z,100941.16
2022-08-14T02:28:24.171Z,100937.03
2022-08-14T02:34:53.528Z,100924.13
2022-08-14T02:41:58.127Z,100916.88
2022-08-14T02:49:04.190Z,100916.88
2022-08-14T02:56:30.662Z,100903.97
2022-08-14T03:03:31.710Z,100897.63
2022-08-14T03:10:34.521Z,100895.34
2022-08-14T03:17:40.924Z,100900.03
2022-08-14T03:24:58.228Z,100906.38
2022-08-14T03:31:59.954Z,100897.78
2022-08-14T03:39:15.590Z,100897.94
2022-08-14T03:46:52.216Z,100895.88
2022-08-14T03:53:54.724Z,100908.59
2022-08-14T04:00:56.325Z,100894.81
2022-08-14T04:08:08.222Z,100878.81
2022-08-14T04:15:21.205Z,100870.72
2022-08-14T04:22:25.298Z,100878.97
2022-08-14T04:29:26.950Z,100878.81
2022-08-14T04:36:28.566Z,100869.00
2022-08-14T04:43:38.614Z,100875.53
2022-08-14T04:50:53.818Z,100872.47
2022-08-14T04:57:56.856Z,100878.47
2022-08-14T05:05:00.512Z,100878.47
2022-08-14T05:13:13.044Z,100860.97
2022-08-14T05:19:29.184Z,100847.53
2022-08-14T05:26:31.483Z,100855.59
2022-08-14T05:33:34.584Z,100843.22
2022-08-14T05:40:36.730Z,100830.47
2022-08-14T05:47:39.965Z,100831.19
2022-08-14T05:54:42.168Z,100834.66
2022-08-14T06:01:46.030Z,100835.31
2022-08-14T06:08:48.399Z,100838.53
2022-08-14T06:15:51.095Z,100841.13
2022-08-14T06:22:54.830Z,100825.28
2022-08-14T06:29:57.983Z,100818.44
2022-08-14T06:37:00.005Z,100805.31
2022-08-14T06:44:01.660Z,100816.88
2022-08-14T06:51:03.937Z,100827.53
2022-08-14T06:58:05.883Z,100813.16
2022-08-14T07:06:02.172Z,100803.09
2022-08-14T07:13:14.104Z,100795.31
2022-08-14T07:20:20.416Z,100791.75
2022-08-14T07:27:33.409Z,100789.19
2022-08-14T07:34:41.311Z,100787.72
2022-08-14T07:41:44.574Z,100769.97
2022-08-14T07:48:48.379Z,100768.78
2022-08-14T07:56:00.540Z,100772.19
2022-08-14T08:03:11.179Z,100766.00
2022-08-14T08:10:57.232Z,100762.38
2022-08-14T08:18:01.255Z,100757.97
2022-08-14T08:25:04.333Z,100742.28
2022-08-14T08:32:15.317Z,100752.09
2022-08-14T08:39:22.160Z,100732.81
2022-08-14T08:46:24.662Z,100739.66
2022-08-14T08:53:33.731Z,100722.59
2022-08-14T09:00:36.627Z,100719.63
2022-08-14T09:07:38.363Z,100713.34
2022-08-14T09:14:53.143Z,100704.44
2022-08-14T09:21:55.075Z,100692.44
2022-08-14T09:28:57.185Z,100685.97
2022-08-14T09:36:13.688Z,100675.22
2022-08-14T09:43:43.429Z,100680.59
2022-08-14T09:50:46.153Z,100671.50
2022-08-14T09:57:47.830Z,100673.56
2022-08-14T10:05:13.156Z,100656.03
2022-08-14T10:12:18.892Z,100649.72
2022-08-14T10:19:30.568Z,100640.88
2022-08-14T10:26:38.068Z,100624.44
2022-08-14T10:33:41.441Z,100626.25
2022-08-14T10:40:44.556Z,100596.25
2022-08-14T10:48:07.911Z,100587.78
2022-08-14T10:55:14.959Z,100577.63
2022-08-14T11:02:45.152Z,100552.81
2022-08-14T11:09:57.346Z,100567.94
2022-08-14T11:16:59.449Z,100562.47
2022-08-14T11:24:01.564Z,100567.41
2022-08-14T11:31:23.699Z,100563.50
2022-08-14T11:38:25.839Z,100552.97
2022-08-14T11:45:34.287Z,100552.16
2022-08-14T11:52:40.216Z,100539.50
2022-08-14T11:59:44.449Z,100527.47
2022-08-14T12:06:55.927Z,100524.19
2022-08-14T12:13:57.623Z,100519.31
2022-08-14T12:20:59.927Z,100484.53
2022-08-14T12:28:05.853Z,100493.84
2022-08-14T12:35:10.658Z,100485.00
2022-08-14T12:42:34.303Z,100469.25
2022-08-14T12:49:34.335Z,100460.84
2022-08-14T12:56:36.046Z,100458.13
2022-08-14T13:03:39.447Z,100440.84
2022-08-14T13:10:51.141Z,100430.22
2022-08-14T13:17:55.715Z,100427.72
2022-08-14T13:24:57.595Z,100400.28
2022-08-14T13:31:59.246Z,100393.34
2022-08-14T13:39:02.206Z,100375.59
2022-08-14T13:46:03.872Z,100359.81
2022-08-14T13:53:05.944Z,100345.91
2022-08-14T14:00:13.308Z,100341.16
2022-08-14T14:07:21.387Z,100322.97
2022-08-14T14:14:44.617Z,100316.44
2022-08-14T14:21:50.602Z,100311.47
2022-08-14T14:28:57.142Z,100295.03
2022-08-14T14:35:59.184Z,100287.59
2022-08-14T14:43:01.270Z,100293.81
2022-08-14T14:50:08.868Z,100277.72
2022-08-14T14:57:13.846Z,100274.34
2022-08-14T15:04:20.988Z,100274.06
2022-08-14T15:11:22.861Z,100267.31
2022-08-14T15:18:38.435Z,100253.28
2022-08-14T15:25:45.538Z,100259.19
2022-08-14T15:32:55.412Z,100253.84
2022-08-14T15:39:57.254Z,100247.91
2022-08-14T15:46:59.718Z,100240.88
2022-08-14T15:54:01.456Z,100231.34
2022-08-14T16:01:43.589Z,100239.16
2022-08-14T16:08:41.917Z,100219.47
2022-08-14T16:15:45.405Z,100215.41
2022-08-14T16:22:58.295Z,100213.75
2022-08-14T16:30:01.298Z,100199.09
2022-08-14T16:37:06.236Z,100193.88
2022-08-14T16:44:13.834Z,100188.25
2022-08-14T16:51:36.473Z,100181.00
2022-08-14T16:58:40.877Z,100181.22
2022-08-14T17:05:43.792Z,100176.81
2022-08-14T17:12:48.822Z,100163.66
2022-08-14T17:20:02.081Z,100163.56
2022-08-14T17:27:10.760Z,100159.81
2022-08-14T17:34:18.708Z,100156.25
2022-08-14T17:41:23.958Z,100155.41
2022-08-14T17:49:14.088Z,100159.81
2022-08-14T17:56:01.635Z,100152.66
2022-08-14T18:03:05.296Z,100170.50
2022-08-14T18:10:52.118Z,100172.25
2022-08-14T18:17:30.577Z,100188.97
2022-08-14T18:24:36.589Z,100193.69
2022-08-14T18:31:43.939Z,100194.88
2022-08-14T18:38:59.926Z,100202.75
2022-08-14T18:46:02.317Z,100203.31
2022-08-14T18:53:07.551Z,100201.09
2022-08-14T19:00:33.940Z,100218.16
2022-08-14T19:07:37.002Z,100224.91
2022-08-14T19:14:46.351Z,100230.00
2022-08-14T19:21:56.097Z,100229.56
2022-08-14T19:28:58.470Z,100229.47
2022-08-14T19:36:28.868Z,100234.19
2022-08-14T19:43:55.042Z,100221.06
2022-08-14T19:51:01.504Z,100223.38
2022-08-14T19:58:03.812Z,100207.84
2022-08-14T20:05:06.268Z,100209.66
2022-08-14T20:12:28.954Z,100218.13
2022-08-14T20:19:41.753Z,100214.44
2022-08-14T20:26:47.146Z,100211.31
2022-08-14T20:34:24.862Z,100201.59
2022-08-14T20:41:30.024Z,100198.06
2022-08-14T20:48:52.673Z,100202.56
2022-08-14T20:55:54.608Z,100201.53
2022-08-14T21:02:56.929Z,100211.59
2022-08-14T21:10:35.358Z,100215.03
2022-08-14T21:17:32.213Z,100212.69
2022-08-14T21:24:47.380Z,100210.41
2022-08-14T21:31:56.062Z,100200.00
2022-08-14T21:38:58.960Z,100211.97
2022-08-14T21:46:00.905Z,100196.63
2022-08-14T21:53:04.045Z,100190.25
2022-08-14T22:00:31.592Z,100187.03
2022-08-14T22:07:36.705Z,100184.31
2022-08-14T22:14:43.773Z,100187.75
2022-08-14T22:21:46.678Z,100185.19
2022-08-14T22:28:55.755Z,100186.66
2022-08-14T22:35:57.536Z,100184.31
2022-08-14T22:43:08.279Z,100172.19
2022-08-14T22:50:30.630Z,100178.13
2022-08-14T22:57:37.612Z,100169.38
2022-08-14T23:04:53.991Z,100171.66
2022-08-14T23:11:56.859Z,100170.38
2022-08-14T23:18:58.494Z,100165.88
2022-08-14T23:26:48.412Z,100161.56
2022-08-14T23:33:21.761Z,100167.28
2022-08-14T23:40:26.395Z,100156.78
2022-08-14T23:47:31.233Z,100151.00
2022-08-14T23:54:52.828Z,100145.84
